createdAt,value
2022-09-25T00:01:48.772Z,35.53
2022-09-25T00:06:50.309Z,41.60
2022-09-25T00:11:51.819Z,39.83
2022-09-25T00:16:53.390Z,33.42
2022-09-25T00:21:54.912Z,39.53
2022-09-25T00:26:56.389Z,40.30
2022-09-25T00:31:57.952Z,43.08
2022-09-25T00:36:59.489Z,42.25
2022-09-25T00:42:00.973Z,36.00
2022-09-25T00:47:03.313Z,37.45
2022-09-25T00:52:09.852Z,31.67
2022-09-25T00:57:15.752Z,36.10
2022-09-25T01:02:24.870Z,41.10
2022-09-25T01:07:26.971Z,37.17
2022-09-25T01:12:28.660Z,36.53
2022-09-25T01:17:41.321Z,35.53
2022-09-25T01:22:51.982Z,34.92
2022-09-25T01:28:29.680Z,40.53
2022-09-25T01:33:42.604Z,36.90
2022-09-25T01:38:50.947Z,35.83
2022-09-25T01:44:02.642Z,34.75
2022-09-25T01:49:17.118Z,36.15
2022-09-25T01:54:27.998Z,37.53
2022-09-25T01:59:42.402Z,34.85
2022-09-25T02:04:52.836Z,37.15
2022-09-25T02:10:12.883Z,38.05
2022-09-25T02:15:26.556Z,38.83
2022-09-25T02:20:32.974Z,43.15
2022-09-25T02:25:38.041Z,43.17
2022-09-25T02:30:39.857Z,47.30
2022-09-25T02:35:42.322Z,46.05
2022-09-25T02:40:51.984Z,44.38
2022-09-25T02:46:10.468Z,46.60
2022-09-25T02:56:29.170Z,43.28
2022-09-25T03:01:33.752Z,42.67
2022-09-25T03:06:54.306Z,42.38
2022-09-25T03:11:57.578Z,42.15
2022-09-25T03:17:04.840Z,44.85
2022-09-25T03:22:06.405Z,41.05
2022-09-25T03:27:07.908Z,43.50
2022-09-25T03:32:09.888Z,40.33
2022-09-25T03:37:11.367Z,36.88
2022-09-25T03:42:13.848Z,37.95
2022-09-25T03:47:15.542Z,32.75
2022-09-25T03:52:17.200Z,38.45
2022-09-25T03:57:18.687Z,35.45
2022-09-25T04:02:20.215Z,31.60
2022-09-25T04:07:22.625Z,32.15
2022-09-25T04:12:24.141Z,33.08
2022-09-25T04:17:25.643Z,32.45
2022-09-25T04:22:27.224Z,35.45
2022-09-25T04:27:28.722Z,36.88
2022-09-25T04:32:48.818Z,34.50
2022-09-25T04:37:50.374Z,34.67
2022-09-25T04:42:57.315Z,37.25
2022-09-25T04:48:00.385Z,37.92
2022-09-25T04:53:02.872Z,37.13
2022-09-25T04:58:04.351Z,35.65
2022-09-25T05:03:05.966Z,35.55
2022-09-25T05:08:07.691Z,36.92
2022-09-25T05:13:11.143Z,38.25
2022-09-25T05:18:17.289Z,35.47
2022-09-25T05:23:19.024Z,34.53
2022-09-25T05:28:20.736Z,33.55
2022-09-25T05:33:22.191Z,33.67
2022-09-25T05:38:23.765Z,37.67
2022-09-25T05:43:25.464Z,32.70
2022-09-25T05:48:27.004Z,35.85
2022-09-25T05:53:30.551Z,35.40
2022-09-25T05:58:34.155Z,31.80
2022-09-25T06:03:36.041Z,35.22
2022-09-25T06:08:37.766Z,35.90
2022-09-25T06:13:39.328Z,37.85
2022-09-25T06:18:40.803Z,40.10
2022-09-25T06:23:44.894Z,39.53
2022-09-25T06:28:46.363Z,42.05
2022-09-25T06:33:50.665Z,38.95
2022-09-25T06:38:55.758Z,35.85
2022-09-25T06:43:57.260Z,40.15
2022-09-25T06:48:58.811Z,37.58
2022-09-25T06:54:00.326Z,38.53
2022-09-25T06:59:01.807Z,37.08
2022-09-25T07:04:04.042Z,36.95
2022-09-25T07:09:05.600Z,34.35
2022-09-25T07:14:07.118Z,39.88
2022-09-25T07:19:09.294Z,37.42
2022-09-25T07:24:11.008Z,37.20
2022-09-25T07:29:12.645Z,38.60
2022-09-25T07:34:14.169Z,42.08
2022-09-25T07:39:24.277Z,39.45
2022-09-25T07:44:31.650Z,39.80
2022-09-25T07:49:40.144Z,43.20
2022-09-25T07:54:43.083Z,40.25
2022-09-25T07:59:45.800Z,42.90
2022-09-25T08:04:47.264Z,42.00
2022-09-25T08:09:48.918Z,43.20
2022-09-25T08:14:51.400Z,40.78
2022-09-25T08:19:52.872Z,44.47
2022-09-25T08:24:54.811Z,41.20
2022-09-25T08:29:56.519Z,38.63
2022-09-25T08:34:58.005Z,43.33
2022-09-25T08:40:00.058Z,46.63
2022-09-25T08:45:26.219Z,48.63
2022-09-25T08:50:29.624Z,48.88
2022-09-25T08:56:02.223Z,51.17
2022-09-25T09:01:09.079Z,54.83
2022-09-25T09:06:14.995Z,54.03
2022-09-25T09:11:22.213Z,48.85
2022-09-25T09:16:26.656Z,52.17
2022-09-25T09:21:28.082Z,52.80
2022-09-25T09:26:50.075Z,49.50
2022-09-25T09:32:03.036Z,45.75
2022-09-25T09:37:22.834Z,42.80
2022-09-25T09:42:40.570Z,41.67
2022-09-25T09:47:56.012Z,40.63
2022-09-25T09:53:04.620Z,38.38
2022-09-25T09:58:17.947Z,35.75
2022-09-25T10:03:28.143Z,38.72
2022-09-25T10:08:30.511Z,31.05
2022-09-25T10:13:37.066Z,27.55
2022-09-25T10:18:44.802Z,31.35
2022-09-25T10:23:46.215Z,28.33
2022-09-25T10:28:47.742Z,26.35
2022-09-25T10:34:12.509Z,23.30
2022-09-25T10:39:51.310Z,21.23
2022-09-25T10:44:58.068Z,14.95
2022-09-25T10:50:12.276Z,20.15
2022-09-25T10:55:20.835Z,14.32
2022-09-25T11:05:32.217Z,15.18
2022-09-25T11:10:36.909Z,14.02
2022-09-25T11:15:39.130Z,14.73
2022-09-25T11:20:42.255Z,15.25
2022-09-25T11:25:53.052Z,14.68
2022-09-25T11:31:27.593Z,19.00
2022-09-25T11:36:41.232Z,23.45
2022-09-25T11:41:55.120Z,15.30
2022-09-25T11:47:27.618Z,14.05
2022-09-25T11:52:48.367Z,17.58
2022-09-25T11:58:14.471Z,13.75
2022-09-25T12:03:37.781Z,14.05
2022-09-25T12:08:59.225Z,13.63
2022-09-25T12:14:19.287Z,12.45
2022-09-25T12:19:37.277Z,13.65
2022-09-25T12:24:57.086Z,12.75
2022-09-25T12:30:28.034Z,12.75
2022-09-25T12:35:46.533Z,11.95
2022-09-25T12:45:58.932Z,13.38
2022-09-25T12:51:14.967Z,14.23
2022-09-25T12:56:44.450Z,16.23
2022-09-25T13:02:30.964Z,18.45
2022-09-25T13:07:46.244Z,13.73
2022-09-25T13:12:49.614Z,17.95
2022-09-25T13:17:51.357Z,12.73
2022-09-25T13:23:15.889Z,14.50
2022-09-25T13:28:23.404Z,16.67
2022-09-25T13:33:25.450Z,16.50
2022-09-25T13:38:45.530Z,17.92
2022-09-25T13:43:49.484Z,16.13
2022-09-25T13:48:52.336Z,18.90
2022-09-25T13:54:04.463Z,19.23
2022-09-25T13:59:16.035Z,22.40
2022-09-25T14:04:25.135Z,19.42
2022-09-25T14:09:30.013Z,17.08
2022-09-25T14:14:52.226Z,18.58
2022-09-25T14:19:56.087Z,16.60
2022-09-25T14:24:57.563Z,17.13
2022-09-25T14:30:10.268Z,15.88
2022-09-25T14:35:30.749Z,16.17
2022-09-25T14:40:40.048Z,16.40
2022-09-25T14:46:02.798Z,15.02
2022-09-25T14:51:25.446Z,15.70
2022-09-25T14:56:34.273Z,16.05
2022-09-25T15:06:40.507Z,17.98
2022-09-25T15:11:43.771Z,15.32
2022-09-25T15:17:04.253Z,15.05
2022-09-25T15:22:17.926Z,15.38
2022-09-25T15:27:20.540Z,18.58
2022-09-25T15:32:23.368Z,16.77
2022-09-25T15:37:29.378Z,15.77
2022-09-25T15:42:30.977Z,16.90
2022-09-25T15:47:35.418Z,17.13
2022-09-25T15:52:38.340Z,16.10
2022-09-25T15:57:40.804Z,15.85
2022-09-25T16:03:09.639Z,16.30
2022-09-25T16:08:17.735Z,15.90
2022-09-25T16:13:25.422Z,17.27
2022-09-25T16:18:34.423Z,16.57
2022-09-25T16:23:38.263Z,14.05
2022-09-25T16:28:39.918Z,15.20
2022-09-25T16:33:48.187Z,14.80
2022-09-25T16:39:07.841Z,15.90
2022-09-25T16:44:21.408Z,17.27
2022-09-25T16:49:24.744Z,15.27
2022-09-25T16:54:30.883Z,16.98
2022-09-25T16:59:32.509Z,15.30
2022-09-25T17:04:35.892Z,15.57
2022-09-25T17:09:37.379Z,12.98
2022-09-25T17:14:38.866Z,18.85
2022-09-25T17:19:40.421Z,14.82
2022-09-25T17:24:42.233Z,15.80
2022-09-25T17:29:46.121Z,15.25
2022-09-25T17:34:47.798Z,48.67
2022-09-25T17:39:49.395Z,18.95
2022-09-25T17:44:50.943Z,20.30
2022-09-25T17:49:52.413Z,29.88
2022-09-25T17:54:53.927Z,19.15
2022-09-25T17:59:55.645Z,18.75
2022-09-25T18:04:57.228Z,20.35
2022-09-25T18:09:58.820Z,15.20
2022-09-25T18:15:00.452Z,17.20
2022-09-25T18:20:20.757Z,17.40
2022-09-25T18:25:22.311Z,18.40
2022-09-25T18:30:24.841Z,14.75
2022-09-25T18:35:26.453Z,14.23
2022-09-25T18:40:28.322Z,12.68
2022-09-25T18:45:29.964Z,12.73
2022-09-25T18:50:32.339Z,15.95
2022-09-25T18:55:33.887Z,17.60
2022-09-25T19:00:35.540Z,15.93
2022-09-25T19:05:37.092Z,13.50
2022-09-25T19:10:38.641Z,14.10
2022-09-25T19:15:43.286Z,15.98
2022-09-25T19:20:53.456Z,16.77
2022-09-25T19:26:01.211Z,17.88
2022-09-25T19:31:08.434Z,19.42
2022-09-25T19:36:31.057Z,16.70
2022-09-25T19:41:35.122Z,14.23
2022-09-25T19:46:36.770Z,15.63
2022-09-25T19:51:39.038Z,13.18
2022-09-25T19:56:42.241Z,11.52
2022-09-25T20:01:44.634Z,11.27
2022-09-25T20:06:46.963Z,14.38
2022-09-25T20:11:48.668Z,10.82
2022-09-25T20:16:50.177Z,10.25
2022-09-25T20:21:52.972Z,10.55
2022-09-25T20:26:55.474Z,9.60
2022-09-25T20:31:56.997Z,8.52
2022-09-25T20:36:58.481Z,8.75
2022-09-25T20:41:59.931Z,7.82
2022-09-25T20:47:01.442Z,8.13
2022-09-25T20:52:03.740Z,7.50
2022-09-25T20:57:05.198Z,7.13
2022-09-25T21:02:07.954Z,7.53
2022-09-25T21:07:14.361Z,7.97
2022-09-25T21:12:18.157Z,8.25
2022-09-25T21:17:19.777Z,8.25
2022-09-25T21:22:21.374Z,7.35
2022-09-25T21:27:22.882Z,7.45
2022-09-25T21:32:24.349Z,6.32
2022-09-25T21:37:25.821Z,6.65
2022-09-25T21:42:29.635Z,5.07
2022-09-25T21:47:31.291Z,5.18
2022-09-25T21:52:32.807Z,5.00
2022-09-25T21:57:34.367Z,4.70
2022-09-25T22:02:35.877Z,4.70
2022-09-25T22:07:37.459Z,5.35
2022-09-25T22:12:38.933Z,5.25
2022-09-25T22:17:40.391Z,4.53
2022-09-25T22:22:41.867Z,4.18
2022-09-25T22:27:43.360Z,4.15
2022-09-25T22:32:45.111Z,4.25
2022-09-25T22:37:46.580Z,4.07
2022-09-25T22:42:48.093Z,3.70
2022-09-25T22:47:49.615Z,3.85
2022-09-25T22:52:53.255Z,3.90
2022-09-25T22:57:57.786Z,4.25
2022-09-25T23:02:59.303Z,4.32
2022-09-25T23:08:00.926Z,3.67
2022-09-25T23:13:03.046Z,3.90
2022-09-25T23:18:05.427Z,5.15
2022-09-25T23:23:06.916Z,3.45
2022-09-25T23:28:08.433Z,3.10
2022-09-25T23:33:09.913Z,2.88
2022-09-25T23:38:11.782Z,2.45
2022-09-25T23:43:13.309Z,2.95
2022-09-25T23:48:15.667Z,2.70
2022-09-25T23:53:17.255Z,2.20
2022-09-25T23:58:18.973Z,3.15
